F/V Manathia — FGSL — position and weather

sailwx.info

Track history (hours):
 
Tides and Currents Weather Stations Pressure Air Temp Water Temp Dewpoint Dewpoint Depression Visibility Wind Speed Wind Dir Waves Ship Positions

F/V Manathia

Last reported at 2017-Mar-30 06:33 UTC. Time now 2017-Mar-30 07:01 UTC.
Position N 47°34' W 004°40'.

Length 16 m.

Type: Fishing. MMSI: 228258000.

Date/timePositionNaut miles runAvg speedWind from/ knotsBaromVisibWave heightAir tempDewpointWater temp
2017-Mar-30 06:33N 47°34' W 004°40'3 3.3
2017-Mar-30 05:33N 47°36' W 004°36'8 7.8
2017-Mar-30 04:34N 47°40' W 004°27'8 7.8
2017-Mar-30 03:33N 47°45' W 004°17'2 0.2
2017-Mar-29 15:23N 47°48' W 004°17'5 5.8
2017-Mar-29 14:33N 47°46' W 004°24'7 7.3
2017-Mar-29 13:33N 47°45' W 004°34'4 4.3
2017-Mar-29 12:33N 47°43' W 004°40'10 3.0
2017-Mar-29 09:12N 47°42' W 004°55'2 2.6
2017-Mar-29 08:33N 47°41' W 004°53'12 3.7
2017-Mar-29 05:13N 47°44' W 004°35'13 7.7
2017-Mar-29 03:33N 47°48' W 004°17'25 0.7
2017-Mar-27 14:18N 47°41' W 004°53'1 0.1
2017-Mar-27 08:24N 47°41' W 004°52'4 3.5
2017-Mar-27 07:08N 47°41' W 004°46'2 3.6
2017-Mar-27 06:32N 47°41' W 004°43'7 6.8
2017-Mar-27 05:33N 47°43' W 004°33'8 8.4
2017-Mar-27 04:33N 47°45' W 004°21'  
2017-Mar-20 22:27N 47°41' W 004°54'6 2.7
2017-Mar-20 20:21N 47°41' W 004°46'2 0.5
2017-Mar-20 17:18N 47°43' W 004°47'2 0.4
2017-Mar-20 11:29N 47°43' W 004°50'0 0.1
2017-Mar-20 09:10N 47°43' W 004°50'  
Track history (hours):
 
Tides and Currents Weather Stations Pressure Air Temp Water Temp Dewpoint Dewpoint Depression Visibility Wind Speed Wind Dir Waves Ship Positions

F/V Manathia

Last reported at 2017-Mar-30 06:33 UTC. Time now 2017-Mar-30 07:01 UTC.
Position N 47°34' W 004°40'.

Length 16 m.

Type: Fishing. MMSI: 228258000.

Date/timePositionNaut miles runAvg speedWind from/ knotsBaromVisibWave heightAir tempDewpointWater temp
2017-Mar-30 06:33N 47°34' W 004°40'3 3.3
2017-Mar-30 05:33N 47°36' W 004°36'8 7.8
2017-Mar-30 04:34N 47°40' W 004°27'8 7.8
2017-Mar-30 03:33N 47°45' W 004°17'2 0.2
2017-Mar-29 15:23N 47°48' W 004°17'5 5.8
2017-Mar-29 14:33N 47°46' W 004°24'7 7.3
2017-Mar-29 13:33N 47°45' W 004°34'4 4.3
2017-Mar-29 12:33N 47°43' W 004°40'10 3.0
2017-Mar-29 09:12N 47°42' W 004°55'2 2.6
2017-Mar-29 08:33N 47°41' W 004°53'12 3.7
2017-Mar-29 05:13N 47°44' W 004°35'13 7.7
2017-Mar-29 03:33N 47°48' W 004°17'25 0.7
2017-Mar-27 14:18N 47°41' W 004°53'1 0.1
2017-Mar-27 08:24N 47°41' W 004°52'4 3.5
2017-Mar-27 07:08N 47°41' W 004°46'2 3.6
2017-Mar-27 06:32N 47°41' W 004°43'7 6.8
2017-Mar-27 05:33N 47°43' W 004°33'8 8.4
2017-Mar-27 04:33N 47°45' W 004°21'  
2017-Mar-20 22:27N 47°41' W 004°54'6 2.7
2017-Mar-20 20:21N 47°41' W 004°46'2 0.5
2017-Mar-20 17:18N 47°43' W 004°47'2 0.4
2017-Mar-20 11:29N 47°43' W 004°50'0 0.1
2017-Mar-20 09:10N 47°43' W 004°50'  

Dump ship's entire track history